Time;durP1;ratioP1;P1;durP2;ratioP2;P2;SDS_P1;SDS_P2;PMS_P1;PMS_P2;Temp;Humidity;BMP_temperature;BMP_pressure;BME280_temperature;BME280_humidity;BME280_pressure;Samples;Min_cycle;Max_cycle;Signal;HPM_P1;HPM_P2
2022/09/15 00:00:26;;;;;;;10.40;8.70;;;;;;;14.89;69.41;99459.47;1686776;83;21756;-74
2022/09/15 00:02:53;;;;;;;9.73;8.73;;;;;;;14.83;69.40;99456.67;1756349;80;21347;-72
2022/09/15 00:05:19;;;;;;;9.80;8.20;;;;;;;14.76;69.45;99455.23;1759479;80;21790;-74
2022/09/15 00:07:46;;;;;;;9.80;8.00;;;;;;;14.73;69.41;99454.50;1764476;80;21293;-75
2022/09/15 00:10:17;;;;;;;9.63;8.40;;;;;;;14.67;69.41;99453.61;1759625;80;21355;-73
2022/09/15 00:12:45;;;;;;;8.88;7.97;;;;;;;14.64;69.49;99450.20;1712361;82;21387;-74
2022/09/15 00:15:13;;;;;;;11.63;8.13;;;;;;;14.62;69.48;99447.05;1704741;83;21063;-74
2022/09/15 00:17:41;;;;;;;13.73;6.70;;;;;;;14.60;69.47;99447.34;1754191;80;21811;-74
2022/09/15 00:20:09;;;;;;;10.30;7.40;;;;;;;14.57;69.52;99445.28;1767766;80;21448;-73
2022/09/15 00:22:36;;;;;;;14.00;7.47;;;;;;;14.57;69.55;99445.83;1759380;80;21830;-74
2022/09/15 00:25:04;;;;;;;12.30;7.00;;;;;;;14.56;69.65;99441.57;1765178;80;21325;-73
2022/09/15 00:27:32;;;;;;;8.97;6.77;;;;;;;14.57;69.70;99437.22;1710583;82;21763;-74
2022/09/15 00:29:59;;;;;;;8.57;6.50;;;;;;;14.60;69.71;99439.84;1708013;82;21289;-74
2022/09/15 00:32:25;;;;;;;7.80;7.10;;;;;;;14.60;69.64;99433.12;1710440;82;21668;-74
2022/09/15 00:34:52;;;;;;;8.43;6.93;;;;;;;14.60;69.62;99431.22;1710244;82;21731;-73
2022/09/15 00:37:19;;;;;;;7.53;6.43;;;;;;;14.61;69.57;99434.70;1709186;82;21407;-74
2022/09/15 00:39:47;;;;;;;7.07;6.20;;;;;;;14.62;69.54;99436.30;1710952;82;21827;-74
2022/09/15 00:42:16;;;;;;;7.23;6.53;;;;;;;14.61;69.47;99438.73;1711336;82;21614;-74
2022/09/15 00:44:51;;;;;;;7.37;6.67;;;;;;;14.60;69.41;99443.88;1709711;82;21265;-72
2022/09/15 00:47:19;;;;;;;7.50;6.80;;;;;;;14.57;69.29;99434.53;1695366;83;21304;-74
2022/09/15 00:49:48;;;;;;;8.63;6.57;;;;;;;14.56;69.25;99441.02;1760401;80;21126;-75
2022/09/15 00:52:20;;;;;;;7.77;6.97;;;;;;;14.56;69.15;99445.60;1756702;80;21284;-75
2022/09/15 00:55:10;;;;;;;8.30;7.50;;;;;;;14.54;69.15;99449.92;1753406;80;21276;-75
2022/09/15 00:58:00;;;;;;;7.53;6.70;;;;;;;14.55;69.18;99452.87;1767139;80;21213;-75
2022/09/15 01:00:27;;;;;;;8.40;7.60;;;;;;;14.53;69.19;99449.14;1759663;80;21235;-75
2022/09/15 01:02:54;;;;;;;8.10;7.30;;;;;;;14.53;69.33;99447.80;1755166;80;21117;-74
2022/09/15 01:05:25;;;;;;;8.00;7.20;;;;;;;14.56;69.40;99444.26;1720462;80;21337;-74
2022/09/15 01:07:58;;;;;;;8.20;7.40;;;;;;;14.55;69.42;99436.75;1769959;80;21805;-73
2022/09/15 01:10:29;;;;;;;8.78;7.72;;;;;;;14.54;69.47;99440.52;1766250;80;21080;-74
2022/09/15 01:13:03;;;;;;;8.45;7.65;;;;;;;14.53;69.48;99441.63;1765223;80;21030;-73
2022/09/15 01:16:02;;;;;;;8.57;7.43;;;;;;;14.54;69.47;99445.89;1775252;80;21034;-75
2022/09/15 01:19:01;;;;;;;8.70;7.73;;;;;;;14.54;69.52;99444.03;1749500;80;21252;-74
2022/09/15 01:21:46;;;;;;;8.80;7.97;;;;;;;14.53;69.57;99434.36;1767439;80;21721;-75
2022/09/15 01:24:42;;;;;;;8.53;6.80;;;;;;;14.55;69.66;99438.09;1778453;80;21581;-74
2022/09/15 01:27:34;;;;;;;9.13;6.80;;;;;;;14.54;69.72;99428.43;1761052;79;22009;-74
2022/09/15 01:30:10;;;;;;;;;;;;;;;14.52;69.79;99426.62;1759167;80;21253;-75
2022/09/15 01:33:03;;;;;;;12.30;7.27;;;;;;;14.47;69.92;99414.63;1752959;80;20219;-75
2022/09/15 01:35:49;;;;;;;7.27;6.50;;;;;;;14.44;70.13;99416.59;1755954;80;21258;-75
2022/09/15 01:38:51;;;;;;;7.40;6.50;;;;;;;14.44;70.36;99413.34;1766903;80;21268;-74
2022/09/15 01:41:25;;;;;;;7.80;7.00;;;;;;;14.48;70.53;99412.20;1756654;80;21192;-73
2022/09/15 01:44:06;;;;;;;10.10;6.87;;;;;;;14.54;70.66;99406.94;1759945;80;20991;-73
2022/09/15 01:46:41;;;;;;;8.60;7.30;;;;;;;14.56;70.65;99400.70;1763979;80;21259;-76
2022/09/15 01:49:09;;;;;;;8.13;7.30;;;;;;;14.52;70.61;99403.23;1764730;80;21269;-74
2022/09/15 01:51:36;;;;;;;9.83;7.50;;;;;;;14.47;70.62;99401.20;1758437;80;21274;-75
2022/09/15 01:54:03;;;;;;;8.23;7.43;;;;;;;14.42;70.75;99398.11;1711814;82;21711;-75
2022/09/15 01:56:29;;;;;;;8.03;7.33;;;;;;;14.43;70.89;99385.46;1685965;84;21329;-74
2022/09/15 01:58:56;;;;;;;8.77;7.87;;;;;;;14.44;70.97;99389.72;1679315;84;21347;-74
2022/09/15 02:01:50;;;;;;;9.00;8.10;;;;;;;14.49;71.12;99389.59;1693410;83;21333;-75
2022/09/15 02:04:45;;;;;;;8.53;7.60;;;;;;;14.58;71.24;99377.02;1672706;84;21307;-74
2022/09/15 02:07:37;;;;;;;7.87;7.10;;;;;;;14.68;71.22;99379.97;1668280;86;21299;-75
2022/09/15 02:10:25;;;;;;;8.33;7.53;;;;;;;14.76;71.18;99381.87;1678277;83;21378;-76
2022/09/15 02:13:16;;;;;;;9.27;8.27;;;;;;;14.78;71.06;99380.45;1691081;83;20961;-74
2022/09/15 02:15:50;;;;;;;8.90;8.00;;;;;;;14.69;71.09;99374.82;1700914;83;21330;-74
2022/09/15 02:18:36;;;;;;;10.03;8.63;;;;;;;14.60;71.26;99372.66;1702126;83;21016;-75
2022/09/15 02:21:09;;;;;;;9.80;8.87;;;;;;;14.57;71.55;99374.06;1692541;83;21198;-74
2022/09/15 02:23:42;;;;;;;9.23;8.30;;;;;;;14.66;71.80;99376.23;1709835;82;21329;-75
2022/09/15 02:26:13;;;;;;;10.33;8.50;;;;;;;14.73;71.88;99367.70;1750566;80;21789;-73
2022/09/15 02:28:44;;;;;;;10.25;8.50;;;;;;;14.80;72.02;99378.78;1736335;80;21387;-73
2022/09/15 02:31:12;;;;;;;10.13;8.63;;;;;;;14.91;72.14;99377.40;1738549;81;21006;-75
2022/09/15 02:33:48;;;;;;;9.77;8.57;;;;;;;15.03;72.22;99380.80;1731223;82;21351;-74
2022/09/15 02:36:17;;;;;;;9.57;8.67;;;;;;;15.14;72.32;99381.30;1726066;80;21298;-75
2022/09/15 02:38:48;;;;;;;9.87;8.80;;;;;;;15.27;72.38;99376.84;1737678;80;21499;-76
2022/09/15 02:41:16;;;;;;;10.38;8.78;;;;;;;15.36;72.31;99373.61;1750873;82;21642;-75
2022/09/15 02:43:48;;;;;;;11.13;8.70;;;;;;;15.41;72.15;99373.45;1727498;82;21055;-75
2022/09/15 02:46:16;;;;;;;9.43;8.35;;;;;;;15.44;72.04;99371.48;1736988;82;21314;-75
2022/09/15 02:48:42;;;;;;;9.47;8.50;;;;;;;15.44;71.89;99370.92;1736186;81;21145;-75
2022/09/15 02:51:09;;;;;;;9.67;8.70;;;;;;;15.45;71.86;99371.70;1741742;82;21420;-75
2022/09/15 02:53:36;;;;;;;9.63;8.63;;;;;;;15.40;72.04;99370.52;1740820;80;22210;-74
2022/09/15 02:56:07;;;;;;;10.40;9.10;;;;;;;15.40;71.95;99367.29;1739862;81;21583;-74
2022/09/15 02:58:33;;;;;;;9.20;8.23;;;;;;;15.40;71.95;99367.29;1704270;82;21419;-75
2022/09/15 03:01:03;;;;;;;10.83;9.73;;;;;;;15.40;71.97;99359.75;1726150;82;21551;-76
2022/09/15 03:03:31;;;;;;;9.97;8.97;;;;;;;15.41;71.85;99351.94;1720515;83;21987;-75
2022/09/15 03:06:15;;;;;;;10.43;9.33;;;;;;;15.48;72.10;99358.41;1699562;83;22068;-75
2022/09/15 03:08:27;;;;;;;10.80;9.47;;;;;;;15.46;71.60;99345.02;1693285;82;21469;-76
2022/09/15 03:10:56;;;;;;;10.27;8.73;;;;;;;15.41;71.90;99345.99;1700340;84;21766;-75
2022/09/15 03:13:24;;;;;;;11.00;9.90;;;;;;;15.42;72.25;99346.78;1709676;82;21459;-76
2022/09/15 03:15:50;;;;;;;12.03;9.80;;;;;;;15.42;72.25;99346.78;1692718;83;22158;-73
2022/09/15 03:18:17;;;;;;;10.80;9.70;;;;;;;15.48;72.10;99338.78;1689979;84;21515;-75
2022/09/15 03:20:44;;;;;;;11.40;9.10;;;;;;;15.54;72.28;99343.45;1696970;82;22030;-75
2022/09/15 03:23:12;;;;;;;10.40;9.27;;;;;;;15.58;72.21;99345.73;1700577;82;22285;-75
2022/09/15 03:25:39;;;;;;;9.97;8.97;;;;;;;15.63;72.18;99337.47;1709116;83;21804;-74
2022/09/15 03:28:06;;;;;;;9.97;9.07;;;;;;;15.64;72.22;99332.34;1699382;83;21642;-75
2022/09/15 03:30:33;;;;;;;10.17;9.17;;;;;;;15.65;72.11;99331.23;1686719;83;21494;-74
2022/09/15 03:33:00;;;;;;;10.67;9.57;;;;;;;15.69;72.06;99327.63;1705408;83;21520;-74
2022/09/15 03:35:34;;;;;;;12.17;9.77;;;;;;;15.74;72.09;99317.23;1696643;82;22257;-74
2022/09/15 03:38:05;;;;;;;9.70;8.70;;;;;;;15.78;72.09;99318.16;1712194;82;21876;-75
2022/09/15 03:40:32;;;;;;;9.73;8.73;;;;;;;15.84;72.14;99317.44;1706933;82;22041;-75
2022/09/15 03:43:03;;;;;;;9.90;8.70;;;;;;;15.97;71.80;99312.39;1706490;82;21733;-75
2022/09/15 03:45:31;;;;;;;10.53;9.45;;;;;;;15.97;71.80;99312.39;1706619;82;21702;-76
2022/09/15 03:47:58;;;;;;;9.47;8.47;;;;;;;15.98;71.52;99311.27;1705749;82;21011;-75
2022/09/15 03:50:24;;;;;;;10.07;9.07;;;;;;;15.98;71.52;99311.27;1711475;82;21718;-75
2022/09/15 03:52:51;;;;;;;10.77;9.13;;;;;;;15.99;71.59;99308.83;1713107;82;22080;-74
2022/09/15 03:55:18;;;;;;;11.03;8.63;;;;;;;15.98;71.49;99300.50;1712614;82;22348;-76
2022/09/15 03:57:45;;;;;;;10.00;9.00;;;;;;;15.95;71.51;99297.11;1752512;80;21707;-74
2022/09/15 04:00:13;;;;;;;10.60;8.97;;;;;;;16.08;71.68;99296.09;1747978;80;21754;-74
2022/09/15 04:02:40;;;;;;;11.23;8.97;;;;;;;16.08;71.68;99296.09;1745170;80;21623;-73
2022/09/15 04:05:14;;;;;;;10.67;9.40;;;;;;;16.16;71.80;99298.53;1760058;80;21818;-74
2022/09/15 04:07:54;;;;;;;9.63;8.73;;;;;;;16.22;71.64;99307.20;1750807;80;22212;-75
2022/09/15 04:10:23;;;;;;;9.57;8.57;;;;;;;16.28;71.58;99302.66;1756722;80;21663;-76
2022/09/15 04:12:51;;;;;;;11.40;8.70;;;;;;;16.34;71.53;99310.00;1760400;80;21679;-75
2022/09/15 04:15:21;;;;;;;9.57;8.63;;;;;;;16.39;71.46;99315.22;1766121;80;21741;-75
2022/09/15 04:17:48;;;;;;;11.33;8.90;;;;;;;16.46;71.57;99328.17;1764411;80;21753;-74
2022/09/15 04:20:16;;;;;;;8.87;7.97;;;;;;;16.51;71.68;99324.71;1761736;80;22226;-75
2022/09/15 04:22:44;;;;;;;10.00;9.07;;;;;;;16.52;71.59;99320.11;1764371;80;22082;-75
2022/09/15 04:25:10;;;;;;;10.43;8.67;;;;;;;16.52;71.46;99317.41;1756497;80;21920;-74
2022/09/15 04:27:37;;;;;;;12.23;9.27;;;;;;;16.54;71.38;99314.63;1708534;82;21719;-74
2022/09/15 04:30:06;;;;;;;10.00;8.70;;;;;;;16.60;71.30;99323.33;1686287;83;22089;-75
2022/09/15 04:32:35;;;;;;;8.90;8.00;;;;;;;16.68;71.35;99331.91;1692697;83;21702;-75
2022/09/15 04:35:03;;;;;;;9.40;8.40;;;;;;;16.75;71.29;99334.11;1702240;83;21769;-75
2022/09/15 04:37:31;;;;;;;9.67;8.67;;;;;;;16.84;71.36;99324.05;1699436;83;21774;-74
2022/09/15 04:39:57;;;;;;;9.10;8.20;;;;;;;16.91;71.29;99321.62;1766891;80;21495;-74
2022/09/15 04:42:24;;;;;;;9.93;8.30;;;;;;;17.03;71.39;99323.59;1747491;80;21757;-74
2022/09/15 04:44:50;;;;;;;10.13;8.47;;;;;;;17.14;71.31;99323.98;1751008;80;21626;-75
2022/09/15 04:47:17;;;;;;;12.20;8.70;;;;;;;17.20;71.10;99318.61;1757397;80;22595;-73
2022/09/15 04:49:44;;;;;;;10.60;8.43;;;;;;;17.28;71.01;99321.25;1768863;80;21770;-74
2022/09/15 04:52:11;;;;;;;10.20;8.53;;;;;;;17.35;70.97;99310.70;1762880;80;21740;-75
2022/09/15 04:54:38;;;;;;;9.27;8.37;;;;;;;17.42;70.91;99308.80;1765193;80;21029;-74
2022/09/15 04:57:05;;;;;;;9.67;8.57;;;;;;;17.49;70.76;99309.61;1766668;80;21051;-76
2022/09/15 04:59:32;;;;;;;10.20;8.57;;;;;;;17.48;70.63;99293.98;1746215;80;21026;-75
2022/09/15 05:01:59;;;;;;;9.47;8.33;;;;;;;17.51;70.55;99294.66;1707418;82;21122;-74
2022/09/15 05:04:26;;;;;;;10.77;8.57;;;;;;;17.55;70.52;99283.98;1707962;82;21051;-73
2022/09/15 05:06:54;;;;;;;11.53;8.03;;;;;;;17.56;70.56;99274.75;1708583;82;21083;-74
2022/09/15 05:09:21;;;;;;;9.60;8.60;;;;;;;17.65;70.66;99279.50;1710702;82;21744;-73
2022/09/15 05:11:49;;;;;;;9.00;8.10;;;;;;;17.74;70.80;99282.11;1708226;82;21529;-74
2022/09/15 05:14:18;;;;;;;10.07;8.53;;;;;;;17.81;70.81;99287.77;1693637;83;21216;-75
2022/09/15 05:16:45;;;;;;;8.50;7.70;;;;;;;17.92;70.84;99288.11;1698748;83;21694;-74
2022/09/15 05:19:13;;;;;;;8.90;8.00;;;;;;;18.01;70.80;99288.23;1693135;83;21090;-74
2022/09/15 05:21:39;;;;;;;11.67;8.20;;;;;;;18.11;70.66;99283.52;1709699;82;21193;-74
2022/09/15 05:24:06;;;;;;;11.17;8.47;;;;;;;18.18;70.49;99281.81;1701824;83;21054;-76
2022/09/15 05:26:32;;;;;;;9.70;8.47;;;;;;;18.24;70.34;99275.63;1767481;80;20997;-76
2022/09/15 05:28:59;;;;;;;9.80;8.67;;;;;;;18.30;70.34;99266.16;1760851;80;21008;-76
2022/09/15 05:31:29;;;;;;;9.80;8.60;;;;;;;18.37;70.23;99267.72;1735950;80;21047;-78
2022/09/15 05:33:56;;;;;;;9.80;8.80;;;;;;;18.43;70.19;99269.07;1767457;80;21766;-74
2022/09/15 05:36:26;;;;;;;9.47;8.07;;;;;;;18.50;70.12;99266.58;1757304;80;21024;-76
2022/09/15 05:38:55;;;;;;;8.40;7.50;;;;;;;18.58;70.07;99268.13;1710950;82;21505;-75
2022/09/15 05:41:22;;;;;;;8.83;7.90;;;;;;;18.64;69.96;99272.17;1710834;82;21031;-76
2022/09/15 05:43:51;;;;;;;9.67;7.90;;;;;;;18.68;69.78;99269.78;1708994;82;20971;-76
2022/09/15 05:46:18;;;;;;;8.43;7.50;;;;;;;18.73;69.61;99262.83;1704882;83;21202;-76
2022/09/15 05:48:45;;;;;;;8.20;7.40;;;;;;;18.77;69.39;99262.93;1767483;80;21012;-76
2022/09/15 05:51:12;;;;;;;9.90;7.97;;;;;;;18.79;69.05;99270.14;1768259;80;20986;-75
2022/09/15 05:53:39;;;;;;;8.60;7.50;;;;;;;18.79;68.72;99267.44;1771808;80;21552;-75
2022/09/15 05:56:11;;;;;;;8.73;7.80;;;;;;;18.81;68.52;99273.84;1770702;80;21026;-76
2022/09/15 05:58:40;;;;;;;9.83;7.97;;;;;;;18.82;68.30;99270.00;1767250;80;21217;-77
2022/09/15 06:01:14;;;;;;;11.87;7.87;;;;;;;18.82;68.20;99272.70;1768008;80;20999;-74
2022/09/15 06:03:41;;;;;;;9.70;7.73;;;;;;;18.80;68.10;99271.72;1753352;80;21537;-75
2022/09/15 06:06:08;;;;;;;9.20;7.40;;;;;;;18.82;67.98;99267.30;1725523;82;21145;-75
2022/09/15 06:08:36;;;;;;;9.10;7.60;;;;;;;18.83;67.87;99273.73;1716212;82;21094;-76
2022/09/15 06:11:09;;;;;;;9.63;8.33;;;;;;;18.84;67.72;99275.88;1726251;82;21118;-75
2022/09/15 06:13:36;;;;;;;8.83;7.93;;;;;;;18.83;67.66;99276.44;1771144;80;21042;-74
2022/09/15 06:16:08;;;;;;;9.87;7.40;;;;;;;18.89;67.62;99283.19;1764752;80;21045;-76
2022/09/15 06:18:36;;;;;;;8.67;7.70;;;;;;;18.89;67.41;99289.95;1762209;80;21055;-75
2022/09/15 06:21:07;;;;;;;10.07;8.17;;;;;;;18.91;67.44;99285.53;1757685;80;20990;-75
2022/09/15 06:23:35;;;;;;;9.47;8.03;;;;;;;18.93;67.42;99284.06;1765491;80;21545;-75
2022/09/15 06:26:10;;;;;;;9.43;8.47;;;;;;;18.98;67.36;99280.31;1755875;80;21557;-76
2022/09/15 06:28:38;;;;;;;9.37;8.27;;;;;;;19.01;67.29;99280.20;1758457;79;21093;-76
2022/09/15 06:31:11;;;;;;;11.80;8.47;;;;;;;19.03;67.28;99286.07;1762424;80;21141;-75
2022/09/15 06:33:45;;;;;;;9.77;7.80;;;;;;;19.02;67.25;99286.64;1758605;80;21127;-74
2022/09/15 06:36:13;;;;;;;9.30;7.97;;;;;;;19.01;67.27;99296.44;1764372;80;21108;-75
2022/09/15 06:38:39;;;;;;;9.17;7.60;;;;;;;19.04;67.36;99299.81;1757818;80;21801;-74
2022/09/15 06:41:06;;;;;;;9.70;7.40;;;;;;;19.06;67.36;99298.34;1711970;82;21495;-75
2022/09/15 06:43:33;;;;;;;8.87;7.50;;;;;;;19.10;67.38;99297.88;1714154;82;21183;-76
2022/09/15 06:46:09;;;;;;;8.13;7.03;;;;;;;19.17;67.42;99301.34;1710426;82;21184;-74
2022/09/15 06:48:36;;;;;;;9.90;7.97;;;;;;;19.22;67.32;99295.69;1710102;82;21172;-74
2022/09/15 06:51:04;;;;;;;8.92;6.95;;;;;;;19.30;67.25;99289.32;1582176;83;9999944;-77
2022/09/15 06:53:32;;;;;;;8.60;7.70;;;;;;;19.34;67.24;99289.41;1690991;82;21546;-77
2022/09/15 06:56:04;;;;;;;9.93;8.17;;;;;;;19.38;67.27;99290.28;1691297;84;21583;-79
2022/09/15 06:58:37;;;;;;;11.50;8.00;;;;;;;19.41;67.24;99289.06;1690292;83;22291;-78
2022/09/15 07:01:24;;;;;;;8.90;8.00;;;;;;;19.47;67.15;99291.49;1690347;84;21225;-77
2022/09/15 07:03:53;;;;;;;10.60;8.03;;;;;;;19.50;66.95;99288.09;1681984;84;21041;-77
2022/09/15 07:06:21;;;;;;;9.27;7.50;;;;;;;19.54;66.73;99291.67;1699208;84;21549;-77
2022/09/15 07:08:49;;;;;;;10.13;8.00;;;;;;;19.55;66.52;99294.63;1708311;83;21596;-77
2022/09/15 07:11:17;;;;;;;8.37;7.43;;;;;;;19.55;66.42;99291.34;1706007;83;21619;-77
2022/09/15 07:13:44;;;;;;;8.27;7.37;;;;;;;19.61;66.27;99287.79;1711385;83;21440;-77
2022/09/15 07:16:13;;;;;;;8.70;7.50;;;;;;;19.65;66.15;99276.53;1705575;82;21603;-78
2022/09/15 07:18:40;;;;;;;8.70;7.80;;;;;;;19.71;66.05;99277.03;1698779;83;21051;-78
2022/09/15 07:21:19;;;;;;;10.50;7.80;;;;;;;19.77;66.02;99272.94;1697259;84;22174;-77
2022/09/15 07:23:49;;;;;;;9.40;7.43;;;;;;;19.85;66.04;99267.92;1694136;84;21691;-76
2022/09/15 07:26:21;;;;;;;10.07;8.40;;;;;;;19.94;65.83;99274.50;1705105;82;21638;-77
2022/09/15 07:28:53;;;;;;;10.00;8.30;;;;;;;20.02;65.62;99264.06;1678150;84;21059;-79
2022/09/15 07:31:23;;;;;;;9.60;7.50;;;;;;;20.13;65.48;99266.44;1697234;84;21048;-78
2022/09/15 07:33:49;;;;;;;10.73;7.77;;;;;;;20.21;65.37;99262.77;1718630;82;21045;-78
2022/09/15 07:36:16;;;;;;;9.03;7.50;;;;;;;20.32;65.36;99275.98;1685066;84;21775;-77
2022/09/15 07:38:51;;;;;;;8.33;7.30;;;;;;;20.43;65.36;99265.37;1693782;84;21079;-78
2022/09/15 07:41:21;;;;;;;10.13;7.83;;;;;;;20.59;65.31;99258.57;1691018;84;21032;-78
2022/09/15 07:43:51;;;;;;;12.00;8.23;;;;;;;20.73;65.08;99262.95;1697863;84;20985;-76
2022/09/15 07:46:19;;;;;;;9.83;8.00;;;;;;;20.89;64.89;99260.73;1702992;82;20972;-75
2022/09/15 07:48:47;;;;;;;9.40;7.53;;;;;;;21.04;64.63;99257.94;1705573;84;21238;-78
2022/09/15 07:51:16;;;;;;;11.13;7.73;;;;;;;21.20;64.32;99244.86;1692352;84;21542;-77
2022/09/15 07:53:45;;;;;;;8.50;6.73;;;;;;;21.33;63.83;99247.62;1711256;82;21062;-78
2022/09/15 07:56:11;;;;;;;8.40;6.97;;;;;;;21.42;63.43;99246.03;1693227;84;21428;-80
2022/09/15 07:58:40;;;;;;;10.73;7.53;;;;;;;21.52;63.18;99241.38;1710404;82;21098;-81
2022/09/15 08:01:13;;;;;;;8.70;6.93;;;;;;;21.60;62.63;99241.70;1690014;84;21202;-80
2022/09/15 08:03:41;;;;;;;9.80;7.20;;;;;;;21.62;62.20;99237.25;1684134;84;21121;-78
2022/09/15 08:06:08;;;;;;;8.28;7.40;;;;;;;21.61;62.14;99238.41;1658493;85;21289;-79
2022/09/15 08:08:37;;;;;;;8.43;6.77;;;;;;;21.63;62.09;99239.62;1700129;84;21067;-78
2022/09/15 08:11:13;;;;;;;9.60;7.57;;;;;;;21.67;61.65;99245.89;1699014;84;21067;-79
2022/09/15 08:13:43;;;;;;;9.77;7.70;;;;;;;21.64;61.16;99243.12;1690771;84;21231;-81
2022/09/15 08:16:18;;;;;;;9.97;7.03;;;;;;;21.65;60.84;99240.05;1688279;84;21048;-80
2022/09/15 08:18:44;;;;;;;8.33;7.43;;;;;;;21.67;60.69;99238.31;1692521;84;21041;-79
2022/09/15 08:21:16;;;;;;;11.73;7.40;;;;;;;21.65;60.43;99238.70;1710703;82;21101;-80
2022/09/15 08:23:47;;;;;;;8.63;7.07;;;;;;;21.64;60.43;99240.40;1708336;82;21070;-78
2022/09/15 08:26:15;;;;;;;8.28;7.22;;;;;;;21.63;60.49;99236.13;1691552;84;21188;-79
2022/09/15 08:28:42;;;;;;;8.80;7.50;;;;;;;21.62;60.49;99232.63;1696961;84;21063;-80
2022/09/15 08:31:10;;;;;;;7.73;6.90;;;;;;;21.63;60.56;99227.97;1718348;81;21026;-80
2022/09/15 08:33:37;;;;;;;8.20;7.40;;;;;;;21.62;60.66;99220.40;1692741;84;21063;-81
2022/09/15 08:36:12;;;;;;;8.23;7.43;;;;;;;21.63;60.73;99220.59;1686205;84;21049;-79
2022/09/15 08:38:39;;;;;;;9.30;6.73;;;;;;;21.67;60.73;99221.44;1684267;84;21129;-79
2022/09/15 08:41:32;;;;;;;8.60;6.90;;;;;;;21.70;60.57;99222.06;1689516;83;21096;-79
2022/09/15 08:44:23;;;;;;;8.77;7.43;;;;;;;21.73;60.51;99214.55;1643129;86;21236;-79
2022/09/15 08:47:15;;;;;;;10.40;7.40;;;;;;;21.77;60.59;99217.32;1698872;82;21057;-81
2022/09/15 08:50:14;;;;;;;10.23;7.30;;;;;;;21.82;60.81;99221.10;1705638;83;21027;-79
2022/09/15 08:52:51;;;;;;;8.77;7.03;;;;;;;21.86;61.01;99216.50;1674056;85;21217;-79
2022/09/15 08:55:38;;;;;;;9.53;7.70;;;;;;;21.94;60.91;99218.73;1692751;84;21622;-82
2022/09/15 08:58:26;;;;;;;9.13;7.30;;;;;;;21.97;60.85;99222.09;1686585;84;21083;-79
2022/09/15 09:01:07;;;;;;;9.30;7.60;;;;;;;21.96;60.59;99220.52;1687530;84;20972;-78
2022/09/15 09:03:48;;;;;;;8.60;7.20;;;;;;;21.92;60.53;99215.62;1698795;84;21053;-79
2022/09/15 09:06:45;;;;;;;8.28;7.47;;;;;;;21.88;60.56;99219.64;1689913;83;22360;-79
2022/09/15 09:09:26;;;;;;;8.97;7.70;;;;;;;21.86;60.66;99217.86;1711688;81;21043;-78
2022/09/15 09:12:24;;;;;;;10.00;7.83;;;;;;;21.86;60.63;99219.80;1689236;81;20997;-76
2022/09/15 09:15:36;;;;;;;9.47;7.57;;;;;;;21.86;60.62;99221.16;1689870;84;21048;-75
2022/09/15 09:18:14;;;;;;;9.53;7.97;;;;;;;21.85;60.59;99212.77;1680091;84;21475;-79
2022/09/15 09:21:13;;;;;;;9.30;7.70;;;;;;;21.86;60.63;99207.56;1676084;84;21170;-76
2022/09/15 09:24:04;;;;;;;11.13;8.53;;;;;;;21.88;60.69;99202.52;1678828;84;21376;-77
2022/09/15 09:26:35;;;;;;;12.50;8.43;;;;;;;21.93;60.75;99205.72;1690857;84;33592;-77
2022/09/15 09:29:18;;;;;;;10.00;8.27;;;;;;;21.95;60.79;99199.94;1690586;83;21149;-77
2022/09/15 09:31:48;;;;;;;9.17;8.17;;;;;;;21.99;60.84;99206.20;1708071;82;21034;-76
2022/09/15 09:34:26;;;;;;;12.57;8.40;;;;;;;22.01;60.92;99195.17;1713720;82;21202;-77
2022/09/15 09:37:15;;;;;;;9.53;7.83;;;;;;;22.06;61.09;99192.70;1683865;83;21107;-78
2022/09/15 09:39:46;;;;;;;10.57;8.30;;;;;;;22.10;61.15;99192.17;1696217;82;21055;-78
2022/09/15 09:42:18;;;;;;;8.93;8.03;;;;;;;22.18;61.41;99184.36;1700276;82;21551;-78
2022/09/15 09:44:45;;;;;;;10.03;7.20;;;;;;;22.29;61.59;99181.78;1707518;82;21466;-78
2022/09/15 09:47:13;;;;;;;6.93;6.20;;;;;;;22.41;61.25;99186.22;1690592;82;21818;-79
2022/09/15 09:49:48;;;;;;;7.70;6.63;;;;;;;22.51;60.68;99188.28;1698091;84;21664;-79
2022/09/15 09:52:36;;;;;;;8.93;6.97;;;;;;;22.61;60.43;99190.92;1688788;84;21048;-78
2022/09/15 09:55:25;;;;;;;9.63;7.10;;;;;;;22.76;60.04;99195.94;1698625;84;21152;-79
2022/09/15 09:57:53;;;;;;;7.47;6.67;;;;;;;22.89;59.54;99195.89;1688037;84;21093;-78
2022/09/15 10:00:34;;;;;;;8.27;7.27;;;;;;;23.00;59.07;99202.28;1696659;84;21155;-79
2022/09/15 10:03:24;;;;;;;8.97;7.10;;;;;;;23.05;58.65;99195.12;1717416;82;21625;-77
2022/09/15 10:06:05;;;;;;;7.77;6.70;;;;;;;23.11;58.40;99201.80;1672970;84;21119;-79
2022/09/15 10:08:32;;;;;;;8.60;7.13;;;;;;;23.18;58.29;99195.63;1688595;84;21029;-79
2022/09/15 10:11:07;;;;;;;9.40;7.13;;;;;;;23.25;58.13;99197.64;1678324;84;21044;-80
2022/09/15 10:13:36;;;;;;;8.13;7.20;;;;;;;23.27;57.59;99201.56;1685240;84;21210;-78
2022/09/15 10:16:04;;;;;;;7.23;6.53;;;;;;;23.28;57.56;99205.06;1679224;84;21141;-79
2022/09/15 10:18:37;;;;;;;9.20;6.97;;;;;;;23.29;57.46;99201.17;1696808;83;21016;-80
2022/09/15 10:21:07;;;;;;;7.50;6.80;;;;;;;23.30;57.30;99202.17;1691608;83;21114;-79
2022/09/15 10:23:34;;;;;;;9.20;6.20;;;;;;;23.30;57.37;99208.98;1685505;83;21749;-80
2022/09/15 10:26:33;;;;;;;8.60;6.60;;;;;;;23.29;57.31;99206.04;1724702;82;21697;-80
2022/09/15 10:29:14;;;;;;;7.73;6.57;;;;;;;23.28;57.25;99207.79;1691681;83;21105;-79
2022/09/15 10:31:42;;;;;;;8.85;7.17;;;;;;;23.23;57.36;99205.39;1700744;83;21083;-81
2022/09/15 10:34:30;;;;;;;8.80;6.57;;;;;;;23.22;57.64;99205.20;1702619;83;21052;-78
2022/09/15 10:37:14;;;;;;;8.17;6.73;;;;;;;23.24;57.63;99204.26;1774109;80;21023;-79
2022/09/15 10:39:53;;;;;;;8.57;7.13;;;;;;;23.26;57.48;99199.20;1762993;80;21689;-76
2022/09/15 10:42:40;;;;;;;8.47;6.47;;;;;;;23.29;57.38;99197.09;1761169;80;21002;-78
2022/09/15 10:45:24;;;;;;;7.63;6.47;;;;;;;23.32;57.14;99194.98;1763106;79;21078;-77
2022/09/15 10:48:18;;;;;;;6.83;6.13;;;;;;;23.37;57.09;99189.20;1763358;80;21045;-78
2022/09/15 10:50:55;;;;;;;8.13;6.43;;;;;;;23.42;57.10;99191.56;1754179;80;21138;-78
2022/09/15 10:53:37;;;;;;;8.77;6.63;;;;;;;23.47;57.06;99192.59;1749227;80;21977;-83
2022/09/15 10:56:32;;;;;;;8.23;6.40;;;;;;;23.45;56.67;99192.17;1756529;80;20935;-82
2022/09/15 10:59:32;;;;;;;9.17;6.07;;;;;;;23.39;56.57;99196.39;1720783;82;21454;-84
2022/09/15 11:02:21;;;;;;;7.67;6.47;;;;;;;23.35;56.56;99194.23;1735190;82;21523;-83
2022/09/15 11:05:26;;;;;;;7.03;5.73;;;;;;;23.32;56.63;99194.98;1747282;80;21070;-78
2022/09/15 11:08:32;;;;;;;8.33;6.00;;;;;;;23.29;56.76;99191.64;1748700;80;21652;-77
2022/09/15 11:11:33;;;;;;;8.10;5.83;;;;;;;23.32;56.86;99186.80;1740959;82;21043;-78
2022/09/15 11:14:57;;;;;;;7.13;6.00;;;;;;;23.39;57.00;99180.05;1746424;80;21035;-77
2022/09/15 11:17:44;;;;;;;9.53;6.13;;;;;;;23.48;56.96;99179.16;1746805;80;20964;-78
2022/09/15 11:20:38;;;;;;;7.45;5.75;;;;;;;23.55;56.85;99171.03;1694300;82;21562;-78
2022/09/15 11:23:45;;;;;;;7.90;6.07;;;;;;;23.56;56.76;99170.45;1679163;82;21195;-77
2022/09/15 11:26:27;;;;;;;7.10;5.80;;;;;;;23.52;56.77;99173.14;1690157;82;21007;-77
2022/09/15 11:28:59;;;;;;;7.53;5.80;;;;;;;23.44;57.00;99165.31;1703206;83;21040;-78
2022/09/15 11:31:28;;;;;;;;;;;;;;;23.44;56.85;99163.95;1706941;84;20977;-77
2022/09/15 11:34:14;;;;;;;7.47;5.50;;;;;;;23.40;56.39;99157.11;1704372;84;20457;-77
2022/09/15 11:37:03;;;;;;;6.70;5.50;;;;;;;23.33;56.30;99159.75;1703180;83;21475;-77
2022/09/15 11:39:51;;;;;;;7.30;5.77;;;;;;;23.29;56.58;99153.50;1704230;83;21025;-78
2022/09/15 11:42:41;;;;;;;7.13;4.90;;;;;;;23.28;56.72;99155.45;1704090;84;21068;-78
2022/09/15 11:45:16;;;;;;;7.40;5.00;;;;;;;23.26;57.00;99146.08;1703728;83;21032;-78
2022/09/15 11:47:49;;;;;;;7.67;5.30;;;;;;;23.26;57.15;99146.08;1704267;84;21063;-77
2022/09/15 11:50:23;;;;;;;7.63;5.27;;;;;;;23.24;57.20;99142.38;1704142;83;21062;-77
2022/09/15 11:53:35;;;;;;;6.70;5.50;;;;;;;23.13;57.19;99135.48;1712145;83;20940;-78
2022/09/15 11:56:29;;;;;;;6.15;5.12;;;;;;;23.08;57.39;99133.09;1682509;85;20975;-78
2022/09/15 11:59:37;;;;;;;9.13;5.80;;;;;;;23.09;57.65;99133.29;1668307;86;21460;-79
2022/09/15 12:02:32;;;;;;;7.33;5.53;;;;;;;23.09;57.32;99134.66;1673750;84;21056;-78
2022/09/15 12:05:16;;;;;;;6.70;5.63;;;;;;;23.02;57.10;99136.53;1706282;83;21133;-76